createdAt,value
2023-02-13T00:02:25.551Z,9.27
2023-02-13T00:04:51.967Z,17.00
2023-02-13T00:07:18.374Z,14.93
2023-02-13T00:09:44.746Z,8.80
2023-02-13T00:12:11.178Z,10.90
2023-02-13T00:14:39.300Z,10.33
2023-02-13T00:17:06.227Z,8.07
2023-02-13T00:19:33.314Z,11.53
2023-02-13T00:21:59.859Z,9.20
2023-02-13T00:24:26.491Z,10.13
2023-02-13T00:26:52.999Z,8.90
2023-02-13T00:29:19.683Z,12.30
2023-02-13T00:31:46.156Z,9.47
2023-02-13T00:34:12.741Z,8.03
2023-02-13T00:36:39.360Z,8.50
2023-02-13T00:39:05.771Z,9.40
2023-02-13T00:41:32.166Z,10.43
2023-02-13T00:43:58.533Z,7.07
2023-02-13T00:46:25.014Z,8.83
2023-02-13T00:48:51.623Z,11.07
2023-02-13T00:51:17.971Z,11.13
2023-02-13T00:53:44.432Z,9.03
2023-02-13T00:56:11.093Z,10.73
2023-02-13T00:58:37.726Z,10.87
2023-02-13T01:01:04.322Z,11.57
2023-02-13T01:03:30.855Z,13.70
2023-02-13T01:05:58.055Z,15.70
2023-02-13T01:08:24.976Z,13.30
2023-02-13T01:10:51.342Z,16.73
2023-02-13T01:13:18.555Z,14.50
2023-02-13T01:15:46.824Z,12.87
2023-02-13T01:18:15.146Z,10.77
2023-02-13T01:20:43.949Z,9.87
2023-02-13T01:23:11.461Z,11.37
2023-02-13T01:25:43.664Z,8.10
2023-02-13T01:28:10.182Z,10.33
2023-02-13T01:30:36.696Z,9.37
2023-02-13T01:33:03.270Z,9.33
2023-02-13T01:35:29.700Z,14.47
2023-02-13T01:37:56.154Z,13.30
2023-02-13T01:40:22.634Z,10.37
2023-02-13T01:42:49.016Z,10.10
2023-02-13T01:45:28.914Z,11.60
2023-02-13T01:47:59.594Z,11.27
2023-02-13T01:50:34.464Z,9.43
2023-02-13T01:53:08.187Z,10.13
2023-02-13T01:55:38.476Z,11.73
2023-02-13T01:58:19.297Z,9.73
2023-02-13T02:00:49.886Z,10.43
2023-02-13T02:03:24.311Z,10.40
2023-02-13T02:05:52.274Z,12.50
2023-02-13T02:08:19.623Z,10.43
2023-02-13T02:10:46.195Z,9.00
2023-02-13T02:13:14.516Z,10.67
2023-02-13T02:15:43.077Z,12.83
2023-02-13T02:18:18.113Z,8.43
2023-02-13T02:21:08.761Z,9.57
2023-02-13T02:23:47.184Z,11.30
2023-02-13T02:26:51.915Z,12.37
2023-02-13T02:29:28.298Z,11.37
2023-02-13T02:32:21.897Z,10.17
2023-02-13T02:34:48.207Z,10.40
2023-02-13T02:37:39.728Z,11.90
2023-02-13T02:40:17.379Z,12.37
2023-02-13T02:42:53.243Z,11.87
2023-02-13T02:45:38.525Z,10.63
2023-02-13T02:48:23.225Z,12.83
2023-02-13T02:51:19.021Z,10.77
2023-02-13T02:54:27.675Z,9.80
2023-02-13T02:57:00.795Z,10.20
2023-02-13T02:59:48.965Z,11.93
2023-02-13T03:02:34.974Z,9.17
2023-02-13T03:05:21.324Z,11.30
2023-02-13T03:07:47.802Z,10.27
2023-02-13T03:10:46.069Z,9.20
2023-02-13T03:13:20.855Z,9.03
2023-02-13T03:16:18.075Z,11.20
2023-02-13T03:19:10.792Z,13.20
2023-02-13T03:22:05.713Z,10.43
2023-02-13T03:24:47.425Z,13.50
2023-02-13T03:28:09.805Z,10.60
2023-02-13T03:31:01.598Z,13.80
2023-02-13T03:33:43.240Z,10.60
2023-02-13T03:36:59.439Z,8.53
2023-02-13T03:39:45.998Z,10.20
2023-02-13T03:42:32.258Z,8.50
2023-02-13T03:45:27.516Z,10.90
2023-02-13T03:47:57.429Z,9.93
2023-02-13T03:50:26.866Z,10.73
2023-02-13T03:53:12.291Z,11.20
2023-02-13T03:56:01.418Z,13.47
2023-02-13T03:58:52.791Z,12.23
2023-02-13T04:01:22.872Z,13.13
2023-02-13T04:04:10.618Z,14.53
2023-02-13T04:06:52.209Z,12.13
2023-02-13T04:09:18.794Z,12.47
2023-02-13T04:12:00.512Z,12.87
2023-02-13T04:14:45.702Z,9.63
2023-02-13T04:17:42.034Z,13.90
2023-02-13T04:20:09.029Z,11.53
2023-02-13T04:22:42.148Z,10.27
2023-02-13T04:25:08.536Z,11.07
2023-02-13T04:27:35.007Z,9.83
2023-02-13T04:30:01.438Z,13.03
2023-02-13T04:32:28.917Z,11.43
2023-02-13T04:34:55.274Z,11.97
2023-02-13T04:37:21.687Z,14.47
2023-02-13T04:39:48.094Z,11.10
2023-02-13T04:42:14.463Z,10.67
2023-02-13T04:44:40.863Z,11.67
2023-02-13T04:47:07.262Z,13.33
2023-02-13T04:49:33.712Z,9.87
2023-02-13T04:52:00.236Z,11.23
2023-02-13T04:54:26.678Z,13.30
2023-02-13T04:56:53.791Z,9.97
2023-02-13T04:59:20.148Z,10.47
2023-02-13T05:01:46.598Z,12.73
2023-02-13T05:04:16.285Z,13.03
2023-02-13T05:06:42.936Z,11.00
2023-02-13T05:09:10.319Z,10.30
2023-02-13T05:11:36.784Z,15.30
2023-02-13T05:14:03.297Z,12.77
2023-02-13T05:16:29.862Z,12.90
2023-02-13T05:18:56.296Z,10.13
2023-02-13T05:21:41.380Z,11.10
2023-02-13T05:24:07.869Z,12.17
2023-02-13T05:26:34.340Z,13.77
2023-02-13T05:29:19.004Z,11.10
2023-02-13T05:31:55.935Z,12.53
2023-02-13T05:34:24.691Z,11.50
2023-02-13T05:36:51.417Z,10.87
2023-02-13T05:39:18.033Z,11.20
2023-02-13T05:41:45.938Z,15.40
2023-02-13T05:44:12.946Z,12.63
2023-02-13T05:46:40.464Z,11.47
2023-02-13T05:49:07.889Z,19.37
2023-02-13T05:51:34.325Z,12.17
2023-02-13T05:54:01.109Z,15.93
2023-02-13T05:56:27.508Z,16.87
2023-02-13T05:58:55.629Z,13.87
2023-02-13T06:01:23.325Z,12.53
2023-02-13T06:03:50.349Z,13.33
2023-02-13T06:06:17.454Z,13.40
2023-02-13T06:08:43.986Z,18.17
2023-02-13T06:11:10.840Z,17.77
2023-02-13T06:13:40.500Z,11.87
2023-02-13T06:16:08.868Z,14.23
2023-02-13T06:18:35.743Z,11.97
2023-02-13T06:21:02.580Z,10.53
2023-02-13T06:23:29.384Z,13.43
2023-02-13T06:25:55.974Z,15.87
2023-02-13T06:28:22.599Z,11.50
2023-02-13T06:30:49.208Z,11.33
2023-02-13T06:33:15.701Z,11.00
2023-02-13T06:35:42.197Z,11.47
2023-02-13T06:38:08.575Z,17.37
2023-02-13T06:40:35.694Z,13.73
2023-02-13T06:43:02.144Z,15.03
2023-02-13T06:45:28.555Z,10.63
2023-02-13T06:47:54.922Z,11.57
2023-02-13T06:50:21.491Z,11.80
2023-02-13T06:52:51.987Z,13.33
2023-02-13T06:55:19.138Z,16.03
2023-02-13T06:57:45.936Z,14.53
2023-02-13T07:00:15.065Z,15.17
2023-02-13T07:02:43.013Z,14.07
2023-02-13T07:05:10.180Z,15.57
2023-02-13T07:07:37.946Z,14.27
2023-02-13T07:10:06.480Z,17.87
2023-02-13T07:12:34.246Z,14.67
2023-02-13T07:15:00.643Z,16.50
2023-02-13T07:17:27.106Z,14.30
2023-02-13T07:19:53.582Z,16.47
2023-02-13T07:22:20.234Z,15.57
2023-02-13T07:24:46.612Z,15.27
2023-02-13T07:27:13.024Z,14.33
2023-02-13T07:29:39.481Z,15.87
2023-02-13T07:32:07.947Z,15.27
2023-02-13T07:34:34.422Z,15.67
2023-02-13T07:37:00.801Z,16.13
2023-02-13T07:39:27.177Z,12.87
2023-02-13T07:41:53.750Z,16.73
2023-02-13T07:44:20.133Z,19.60
2023-02-13T07:46:46.586Z,13.07
2023-02-13T07:49:13.103Z,13.20
2023-02-13T07:51:39.529Z,14.27
2023-02-13T07:54:05.943Z,22.83
2023-02-13T07:56:32.479Z,14.20
2023-02-13T07:58:58.840Z,16.93
2023-02-13T08:01:25.334Z,18.27
2023-02-13T08:03:51.887Z,15.63
2023-02-13T08:06:19.457Z,18.63
2023-02-13T08:08:45.938Z,19.60
2023-02-13T08:11:49.854Z,15.33
2023-02-13T08:14:16.258Z,15.83
2023-02-13T08:16:42.703Z,16.93
2023-02-13T08:19:09.306Z,15.63
2023-02-13T08:21:38.152Z,16.67
2023-02-13T08:24:05.391Z,16.17
2023-02-13T08:26:32.450Z,20.67
2023-02-13T08:28:59.171Z,16.40
2023-02-13T08:31:25.839Z,16.53
2023-02-13T08:33:52.920Z,19.33
2023-02-13T08:36:19.998Z,18.07
2023-02-13T08:38:47.310Z,16.33
2023-02-13T08:41:14.407Z,17.07
2023-02-13T08:43:41.169Z,17.93
2023-02-13T08:46:07.722Z,16.23
2023-02-13T08:48:34.211Z,17.57
2023-02-13T08:51:00.664Z,14.00
2023-02-13T08:53:27.049Z,19.20
2023-02-13T08:55:58.041Z,14.47
2023-02-13T08:58:26.248Z,18.17
2023-02-13T09:00:52.696Z,17.80
2023-02-13T09:03:19.299Z,17.87
2023-02-13T09:05:47.439Z,15.07
2023-02-13T09:08:14.023Z,16.07
2023-02-13T09:10:43.694Z,21.60
2023-02-13T09:13:10.418Z,15.57
2023-02-13T09:15:40.780Z,15.10
2023-02-13T09:18:07.921Z,16.83
2023-02-13T09:20:35.993Z,14.77
2023-02-13T09:23:03.720Z,17.23
2023-02-13T09:25:31.310Z,16.27
2023-02-13T09:27:59.790Z,20.43
2023-02-13T09:30:26.501Z,16.83
2023-02-13T09:32:54.410Z,18.67
2023-02-13T09:35:21.628Z,17.23
2023-02-13T09:37:48.130Z,14.10
2023-02-13T09:40:26.348Z,14.87
2023-02-13T09:45:25.640Z,14.23
2023-02-13T09:47:52.156Z,16.90
2023-02-13T09:50:25.568Z,16.40
2023-02-13T09:52:54.553Z,14.80
2023-02-13T09:55:42.040Z,15.30
2023-02-13T09:58:16.270Z,13.00
2023-02-13T10:00:46.268Z,13.20
2023-02-13T10:03:36.259Z,16.67
2023-02-13T10:06:21.751Z,15.33
2023-02-13T10:09:20.072Z,10.47
2023-02-13T10:12:02.016Z,11.67
2023-02-13T10:14:45.256Z,12.20
2023-02-13T10:17:21.331Z,14.07
2023-02-13T10:19:55.360Z,12.87
2023-02-13T10:22:29.647Z,11.27
2023-02-13T10:25:10.991Z,11.20
2023-02-13T10:27:46.501Z,11.70
2023-02-13T10:30:38.163Z,12.20
2023-02-13T10:33:21.951Z,12.03
2023-02-13T10:36:06.894Z,11.17
2023-02-13T10:38:35.668Z,12.23
2023-02-13T10:41:16.993Z,11.80
2023-02-13T10:44:17.866Z,8.77
2023-02-13T10:46:56.338Z,11.07
2023-02-13T10:49:42.866Z,12.87
2023-02-13T10:52:33.048Z,12.47
2023-02-13T10:55:27.811Z,9.27
2023-02-13T10:58:22.518Z,10.57
2023-02-13T11:01:09.629Z,11.70
2023-02-13T11:03:36.282Z,10.90
2023-02-13T11:06:07.987Z,13.07
2023-02-13T11:08:43.312Z,15.50
2023-02-13T11:11:30.412Z,10.17
2023-02-13T11:14:21.386Z,9.23
2023-02-13T11:16:47.701Z,11.97
2023-02-13T11:19:22.406Z,9.13
2023-02-13T11:21:54.086Z,12.40
2023-02-13T11:24:25.897Z,12.03
2023-02-13T11:26:58.380Z,13.60
2023-02-13T11:29:29.050Z,10.07
2023-02-13T11:32:31.940Z,11.23
2023-02-13T11:35:19.884Z,11.87
2023-02-13T11:37:46.354Z,10.00
2023-02-13T11:40:31.550Z,11.00
2023-02-13T11:42:58.073Z,9.97
2023-02-13T11:45:26.165Z,10.97
2023-02-13T11:47:55.414Z,9.33
2023-02-13T11:50:29.639Z,11.67
2023-02-13T11:52:59.912Z,10.43
2023-02-13T11:55:42.496Z,11.20
2023-02-13T11:58:11.899Z,13.07
2023-02-13T12:00:41.310Z,7.47
2023-02-13T12:03:20.094Z,10.10
2023-02-13T12:06:05.635Z,20.53
2023-02-13T12:08:36.433Z,11.20
2023-02-13T12:11:09.135Z,9.43
2023-02-13T12:13:39.419Z,10.50
2023-02-13T12:16:37.683Z,11.23
2023-02-13T12:19:13.563Z,10.00
2023-02-13T12:21:58.405Z,10.87
2023-02-13T12:25:00.401Z,7.53
2023-02-13T12:27:44.227Z,8.87
2023-02-13T12:30:45.580Z,9.50
2023-02-13T12:33:32.586Z,8.63
2023-02-13T12:36:24.947Z,7.90
2023-02-13T12:39:24.927Z,8.77
2023-02-13T12:42:01.510Z,8.20
2023-02-13T12:44:42.373Z,9.10
2023-02-13T12:47:21.936Z,7.60
2023-02-13T12:49:54.676Z,5.20
2023-02-13T12:52:40.426Z,5.60
2023-02-13T12:55:23.155Z,6.63
2023-02-13T12:58:14.494Z,5.37
2023-02-13T13:00:52.513Z,6.53
2023-02-13T13:03:41.418Z,6.97
2023-02-13T13:06:32.550Z,5.17
2023-02-13T13:09:08.180Z,6.33
2023-02-13T13:12:01.757Z,5.80
2023-02-13T13:14:36.037Z,4.93
2023-02-13T13:17:19.237Z,5.97
2023-02-13T13:19:52.563Z,4.77
2023-02-13T13:22:21.981Z,4.40
2023-02-13T13:25:00.827Z,4.40
2023-02-13T13:27:33.352Z,5.17
2023-02-13T13:30:29.083Z,5.97
2023-02-13T13:33:02.374Z,3.90
2023-02-13T13:35:29.758Z,4.80
2023-02-13T13:38:06.510Z,5.60
2023-02-13T13:40:46.395Z,5.97
2023-02-13T13:43:21.877Z,6.23
2023-02-13T13:46:09.685Z,3.87
2023-02-13T13:48:54.234Z,6.10
2023-02-13T13:51:20.922Z,3.50
2023-02-13T13:53:59.489Z,4.30
2023-02-13T13:56:26.814Z,5.40
2023-02-13T13:58:54.765Z,7.23
2023-02-13T14:01:29.636Z,5.23
2023-02-13T14:04:00.291Z,4.13
2023-02-13T14:06:48.531Z,3.80
2023-02-13T14:09:26.919Z,5.67
2023-02-13T14:11:55.220Z,6.30
2023-02-13T14:14:27.611Z,4.80
2023-02-13T14:17:02.189Z,6.73
2023-02-13T14:19:39.786Z,5.50
2023-02-13T14:22:24.557Z,3.83
2023-02-13T14:25:01.481Z,5.37
2023-02-13T14:27:34.443Z,3.67
2023-02-13T14:30:02.783Z,8.00
2023-02-13T14:32:36.613Z,4.13
2023-02-13T14:35:20.670Z,4.93
2023-02-13T14:37:55.139Z,5.03
2023-02-13T14:40:21.930Z,3.90
2023-02-13T14:42:53.965Z,4.10
2023-02-13T14:45:27.270Z,5.57
2023-02-13T14:47:56.574Z,5.90
2023-02-13T14:50:46.534Z,8.43
2023-02-13T14:53:21.678Z,4.83
2023-02-13T14:55:53.921Z,6.57
2023-02-13T14:58:27.817Z,9.97
2023-02-13T15:01:00.959Z,7.37
2023-02-13T15:03:46.475Z,5.10
2023-02-13T15:06:24.727Z,5.57
2023-02-13T15:08:53.074Z,4.80
2023-02-13T15:11:52.041Z,7.90
2023-02-13T15:14:27.772Z,4.13
2023-02-13T15:16:59.473Z,4.80
2023-02-13T15:19:26.366Z,4.50
2023-02-13T15:22:04.365Z,5.37
2023-02-13T15:24:38.460Z,6.20
2023-02-13T15:27:07.387Z,5.17
2023-02-13T15:29:47.857Z,5.17
2023-02-13T15:32:21.322Z,5.83
2023-02-13T15:34:48.859Z,5.63
2023-02-13T15:37:23.851Z,5.63
2023-02-13T15:39:50.500Z,6.00
2023-02-13T15:42:17.062Z,5.13
2023-02-13T15:44:47.685Z,6.07
2023-02-13T15:47:30.452Z,10.17
2023-02-13T15:49:57.323Z,7.20
2023-02-13T15:52:31.812Z,5.37
2023-02-13T15:54:58.987Z,7.37
2023-02-13T15:57:27.168Z,8.03
2023-02-13T15:59:56.508Z,11.37
2023-02-13T16:02:34.402Z,11.13
2023-02-13T16:05:02.093Z,8.90
2023-02-13T16:07:30.518Z,5.77
2023-02-13T16:10:27.043Z,11.70
2023-02-13T16:12:54.730Z,4.90
2023-02-13T16:15:22.766Z,6.93
2023-02-13T16:17:49.696Z,6.67
2023-02-13T16:20:22.488Z,7.23
2023-02-13T16:22:52.972Z,7.47
2023-02-13T16:25:30.821Z,8.20
2023-02-13T16:28:09.499Z,6.07
2023-02-13T16:30:42.047Z,9.93
2023-02-13T16:33:14.523Z,13.10
2023-02-13T16:35:49.400Z,11.40
2023-02-13T16:38:32.402Z,7.60
2023-02-13T16:41:22.120Z,9.60
2023-02-13T16:43:53.441Z,12.83
2023-02-13T16:46:24.838Z,8.47
2023-02-13T16:48:57.656Z,9.13
2023-02-13T16:51:26.126Z,7.33
2023-02-13T16:54:05.496Z,7.93
2023-02-13T16:56:40.348Z,10.97
2023-02-13T16:59:15.720Z,10.53
2023-02-13T17:01:42.181Z,8.90
2023-02-13T17:04:23.166Z,8.03
2023-02-13T17:06:55.400Z,9.57
2023-02-13T17:09:22.179Z,8.57
2023-02-13T17:11:53.050Z,7.57
2023-02-13T17:14:20.387Z,8.23
2023-02-13T17:16:48.562Z,7.83
2023-02-13T17:19:15.091Z,7.17
2023-02-13T17:21:42.164Z,6.60
2023-02-13T17:24:16.599Z,9.03
2023-02-13T17:26:43.027Z,8.97
2023-02-13T17:29:09.613Z,9.80
2023-02-13T17:31:36.781Z,9.67
2023-02-13T17:34:03.262Z,11.30
2023-02-13T17:36:29.703Z,8.73
2023-02-13T17:38:56.323Z,8.27
2023-02-13T17:41:22.765Z,9.70
2023-02-13T17:43:49.152Z,8.53
2023-02-13T17:46:16.875Z,8.67
2023-02-13T17:48:43.349Z,11.47
2023-02-13T17:51:13.980Z,10.53
2023-02-13T17:53:40.799Z,10.73
2023-02-13T17:56:07.290Z,9.07
2023-02-13T17:58:33.647Z,9.13
2023-02-13T18:01:00.440Z,9.97
2023-02-13T18:03:27.220Z,9.47
2023-02-13T18:05:53.740Z,10.33
2023-02-13T18:08:20.289Z,10.53
2023-02-13T18:10:46.748Z,12.33
2023-02-13T18:13:13.174Z,9.03
2023-02-13T18:15:42.964Z,9.13
2023-02-13T18:18:10.810Z,9.73
2023-02-13T18:20:37.287Z,15.33
2023-02-13T18:23:03.739Z,10.47
2023-02-13T18:25:30.332Z,10.60
2023-02-13T18:27:56.898Z,12.20
2023-02-13T18:30:23.505Z,10.37
2023-02-13T18:32:55.874Z,9.73
2023-02-13T18:35:23.052Z,10.57
2023-02-13T18:37:50.020Z,11.37
2023-02-13T18:40:17.639Z,12.03
2023-02-13T18:42:44.909Z,11.07
2023-02-13T18:45:12.165Z,10.33
2023-02-13T18:47:38.731Z,10.93
2023-02-13T18:50:05.726Z,9.80
2023-02-13T18:52:32.118Z,11.03
2023-02-13T18:54:58.547Z,13.53
2023-02-13T18:57:24.984Z,11.03
2023-02-13T18:59:51.649Z,10.37
2023-02-13T19:02:18.156Z,9.53
2023-02-13T19:04:44.717Z,11.30
2023-02-13T19:07:11.095Z,11.03
2023-02-13T19:09:40.276Z,10.20
2023-02-13T19:12:07.650Z,13.23
2023-02-13T19:14:34.241Z,8.93
2023-02-13T19:17:00.708Z,11.07
2023-02-13T19:19:27.165Z,10.37
2023-02-13T19:21:53.626Z,10.67
2023-02-13T19:24:20.049Z,10.17
2023-02-13T19:26:47.233Z,10.47
2023-02-13T19:29:13.616Z,13.27
2023-02-13T19:31:40.224Z,11.80
2023-02-13T19:34:06.956Z,12.83
2023-02-13T19:36:33.539Z,12.77
2023-02-13T19:39:06.238Z,13.53
2023-02-13T19:41:33.024Z,11.73
2023-02-13T19:44:00.434Z,10.93
2023-02-13T19:46:29.574Z,10.50
2023-02-13T19:48:56.350Z,10.90
2023-02-13T19:51:25.484Z,11.77
2023-02-13T19:53:57.571Z,13.17
2023-02-13T19:56:27.319Z,12.77
2023-02-13T19:58:54.639Z,11.70
2023-02-13T20:01:23.159Z,13.63
2023-02-13T20:03:50.528Z,11.53
2023-02-13T20:06:25.532Z,11.57
2023-02-13T20:08:52.882Z,13.40
2023-02-13T20:11:21.078Z,11.03
2023-02-13T20:13:48.009Z,12.60
2023-02-13T20:16:17.123Z,11.67
2023-02-13T20:18:43.749Z,12.37
2023-02-13T20:21:13.457Z,11.07
2023-02-13T20:23:41.013Z,14.23
2023-02-13T20:26:11.049Z,12.47
2023-02-13T20:28:38.226Z,12.43
2023-02-13T20:31:18.548Z,14.00
2023-02-13T20:33:45.883Z,14.57
2023-02-13T20:36:14.765Z,16.07
2023-02-13T20:38:42.093Z,12.90
2023-02-13T20:41:13.524Z,13.53
2023-02-13T20:43:39.992Z,12.93
2023-02-13T20:46:07.477Z,12.70
2023-02-13T20:48:38.694Z,12.00
2023-02-13T20:51:08.148Z,16.50
2023-02-13T20:53:35.324Z,15.07
2023-02-13T20:56:13.362Z,14.70
2023-02-13T20:58:41.304Z,13.40
2023-02-13T21:01:32.659Z,11.53
2023-02-13T21:03:59.772Z,12.37
2023-02-13T21:06:29.451Z,11.97
2023-02-13T21:08:56.427Z,11.17
2023-02-13T21:11:24.455Z,12.47
2023-02-13T21:13:51.064Z,14.93
2023-02-13T21:16:20.845Z,13.93
2023-02-13T21:18:49.946Z,15.50
2023-02-13T21:21:16.533Z,13.30
2023-02-13T21:23:43.151Z,11.83
2023-02-13T21:26:15.581Z,12.23
2023-02-13T21:28:45.874Z,15.30
2023-02-13T21:31:16.824Z,14.93
2023-02-13T21:33:44.036Z,14.70
2023-02-13T21:36:12.044Z,13.30
2023-02-13T21:38:39.778Z,14.13
2023-02-13T21:41:11.742Z,16.77
2023-02-13T21:43:38.207Z,13.30
2023-02-13T21:46:14.945Z,14.80
2023-02-13T21:48:41.988Z,14.83
2023-02-13T21:51:16.802Z,14.63
2023-02-13T21:53:44.330Z,12.40
2023-02-13T21:56:13.005Z,13.47
2023-02-13T21:58:41.839Z,15.03
2023-02-13T22:01:25.095Z,13.00
2023-02-13T22:03:54.316Z,14.73
2023-02-13T22:06:21.655Z,15.30
2023-02-13T22:08:49.019Z,16.07
2023-02-13T22:11:17.826Z,15.43
2023-02-13T22:13:44.310Z,16.20
2023-02-13T22:16:13.938Z,13.77
2023-02-13T22:18:43.062Z,13.47
2023-02-13T22:21:15.844Z,15.07
2023-02-13T22:23:43.862Z,13.77
2023-02-13T22:26:21.229Z,14.07
2023-02-13T22:28:49.464Z,17.27
2023-02-13T22:31:17.719Z,16.43
2023-02-13T22:33:47.733Z,12.83
2023-02-13T22:36:18.036Z,13.03
2023-02-13T22:38:44.691Z,12.90
2023-02-13T22:41:13.949Z,12.90
2023-02-13T22:43:41.147Z,12.93
2023-02-13T22:46:11.541Z,14.70
2023-02-13T22:48:39.666Z,16.23
2023-02-13T22:51:09.525Z,14.60
2023-02-13T22:53:37.236Z,15.83
2023-02-13T22:56:05.298Z,14.57
2023-02-13T22:58:31.761Z,15.30
2023-02-13T23:00:58.564Z,15.23
2023-02-13T23:03:25.540Z,13.70
2023-02-13T23:05:52.686Z,17.67
2023-02-13T23:08:19.503Z,14.93
2023-02-13T23:11:08.775Z,14.70
2023-02-13T23:13:35.231Z,16.70
2023-02-13T23:16:01.742Z,14.77
2023-02-13T23:18:28.232Z,15.07
2023-02-13T23:20:55.099Z,14.17
2023-02-13T23:23:22.302Z,13.83
2023-02-13T23:25:48.725Z,14.33
2023-02-13T23:28:15.151Z,14.93
2023-02-13T23:30:41.732Z,14.23
2023-02-13T23:33:08.302Z,16.20
2023-02-13T23:35:34.821Z,16.47
2023-02-13T23:38:01.269Z,17.73
2023-02-13T23:40:27.711Z,15.70
2023-02-13T23:42:54.120Z,14.43
2023-02-13T23:45:20.550Z,16.27
2023-02-13T23:47:46.996Z,14.40
2023-02-13T23:50:13.418Z,14.67
2023-02-13T23:52:39.826Z,15.80
2023-02-13T23:55:06.459Z,17.47
2023-02-13T23:57:33.020Z,13.93
2023-02-13T23:59:59.568Z,13.63
